Time;durP1;ratioP1;P1;durP2;ratioP2;P2;SDS_P1;SDS_P2;PMS_P1;PMS_P2;Temp;Humidity;BMP_temperature;BMP_pressure;BME280_temperature;BME280_humidity;BME280_pressure;Samples;Min_cycle;Max_cycle;Signal;HPM_P1;HPM_P2
2022/12/13 00:01:16;;;;;;;3.03;2.73;;;-6.00;65.90;-7.40;95163.00;;;;5014721;28;20580;-60
2022/12/13 00:03:43;;;;;;;7.27;3.90;;;-6.10;66.20;-7.50;95165.00;;;;5014450;28;20197;-59
2022/12/13 00:06:13;;;;;;;11.83;3.23;;;-6.10;66.00;-7.50;95151.00;;;;5014388;28;20232;-59
2022/12/13 00:08:41;;;;;;;4.80;4.40;;;-6.10;66.00;-7.60;95159.00;;;;5014570;28;20190;-60
2022/12/13 00:11:12;;;;;;;8.77;3.03;;;-6.10;65.80;-7.50;95170.00;;;;5014286;28;20225;-60
2022/12/13 00:13:41;;;;;;;5.00;3.47;;;-6.10;66.60;-7.50;95157.00;;;;5014330;28;20687;-60
2022/12/13 00:16:12;;;;;;;11.00;3.80;;;-6.20;66.10;-7.40;95161.00;;;;5014141;28;20760;-60
2022/12/13 00:18:40;;;;;;;2.73;1.63;;;-6.20;65.80;-7.50;95162.00;;;;5014480;28;20182;-60
2022/12/13 00:21:09;;;;;;;3.67;3.07;;;-6.20;65.50;-7.50;95173.00;;;;5014147;28;20189;-60
2022/12/13 00:23:37;;;;;;;2.23;2.10;;;-6.20;65.80;-7.40;95168.00;;;;5013694;28;20186;-60
2022/12/13 00:26:05;;;;;;;3.87;3.47;;;-6.10;65.90;-7.50;95169.00;;;;5014442;28;20220;-60
2022/12/13 00:28:33;;;;;;;2.87;2.67;;;-6.10;65.90;-7.50;95175.00;;;;5013997;28;20194;-60
2022/12/13 00:31:01;;;;;;;2.00;1.90;;;-6.10;65.80;-7.70;95158.00;;;;5012797;28;20692;-60
2022/12/13 00:33:29;;;;;;;3.53;3.10;;;-6.20;65.80;-7.70;95146.00;;;;5013915;28;20187;-60
2022/12/13 00:35:57;;;;;;;2.70;2.07;;;-6.20;65.80;-7.80;95149.00;;;;5012504;28;20587;-60
2022/12/13 00:38:25;;;;;;;1.70;1.60;;;-6.30;65.80;-7.80;95153.00;;;;5014050;28;20194;-59
2022/12/13 00:40:53;;;;;;;4.07;2.13;;;-6.40;65.70;-7.80;95151.00;;;;5013830;28;20583;-60
2022/12/13 00:43:21;;;;;;;7.83;2.70;;;-6.40;65.50;-7.90;95142.00;;;;5013742;28;20194;-61
2022/12/13 00:45:48;;;;;;;6.67;3.60;;;-6.50;65.80;-7.80;95141.00;;;;5013737;28;20220;-60
2022/12/13 00:48:15;;;;;;;5.47;4.27;;;-6.50;66.50;-7.80;95140.00;;;;5013687;28;20198;-60
2022/12/13 00:50:42;;;;;;;2.53;2.33;;;-6.50;66.70;-7.90;95135.00;;;;5014097;28;20223;-60
2022/12/13 00:53:10;;;;;;;3.50;3.20;;;-6.40;66.60;-7.80;95139.00;;;;5013591;28;20190;-60
2022/12/13 00:55:40;;;;;;;8.53;3.00;;;-6.40;66.70;-7.90;95129.00;;;;5013814;28;20214;-60
2022/12/13 00:58:09;;;;;;;2.63;2.53;;;-6.40;66.50;-7.90;95138.00;;;;5013610;28;20703;-60
2022/12/13 01:00:36;;;;;;;1.93;1.83;;;-6.40;66.60;-7.90;95125.00;;;;5013528;28;20189;-60
2022/12/13 01:03:19;;;;;;;2.40;2.20;;;-6.50;66.60;-7.90;95142.00;;;;5013715;28;20193;-60
2022/12/13 01:05:47;;;;;;;1.20;1.20;;;-6.50;66.40;-8.00;95134.00;;;;5013897;28;20209;-60
2022/12/13 01:08:14;;;;;;;2.77;2.60;;;-6.50;65.90;-7.90;95131.00;;;;5013434;28;20368;-60
2022/12/13 01:10:44;;;;;;;5.10;2.33;;;-6.50;65.60;-7.90;95125.00;;;;5013362;28;20213;-60
2022/12/13 01:13:14;;;;;;;2.83;2.50;;;-6.50;65.40;-7.80;95122.00;;;;5013652;28;20295;-60
2022/12/13 01:15:42;;;;;;;5.87;2.80;;;-6.50;65.80;-7.90;95121.00;;;;5013298;28;20217;-60
2022/12/13 01:18:10;;;;;;;2.73;2.23;;;-6.50;65.70;-7.80;95140.00;;;;5013329;28;20190;-60
2022/12/13 01:20:38;;;;;;;2.53;2.33;;;-6.40;65.90;-8.20;95123.00;;;;5013346;28;20200;-59
2022/12/13 01:23:06;;;;;;;2.90;2.70;;;-6.60;64.90;-8.20;95136.00;;;;5013228;28;20189;-59
2022/12/13 01:25:33;;;;;;;2.13;2.03;;;-6.70;66.00;-8.10;95128.00;;;;5013215;28;20569;-60
2022/12/13 01:28:00;;;;;;;2.70;2.23;;;-6.70;65.90;-7.90;95123.00;;;;5013230;28;20189;-59
2022/12/13 01:30:29;;;;;;;3.73;3.17;;;-6.60;66.30;-7.90;95115.00;;;;5013443;28;20235;-60
2022/12/13 01:32:56;;;;;;;2.00;1.90;;;-6.50;65.90;-7.90;95126.00;;;;5013464;28;20201;-60
2022/12/13 01:35:23;;;;;;;2.50;2.30;;;-6.50;65.90;-7.90;95118.00;;;;5016207;28;20213;-60
2022/12/13 01:37:50;;;;;;;4.57;2.07;;;-6.50;65.90;-7.90;95111.00;;;;5017136;28;20189;-60
2022/12/13 01:40:17;;;;;;;5.87;3.13;;;-6.50;66.00;-8.00;95123.00;;;;5017394;28;20196;-60
2022/12/13 01:42:44;;;;;;;2.10;2.00;;;-6.60;65.50;-8.00;95113.00;;;;5017332;28;20197;-60
2022/12/13 01:45:24;;;;;;;4.43;1.63;;;-6.60;65.20;-8.00;95109.00;;;;5029861;23;20233;-55
2022/12/13 01:47:57;;;;;;;2.87;2.20;;;-6.60;65.00;-8.00;95102.00;;;;5017644;28;20181;-54
2022/12/13 01:50:31;;;;;;;3.20;2.77;;;-6.50;65.10;-8.00;95108.00;;;;5016980;28;20680;-54
2022/12/13 01:53:01;;;;;;;3.50;2.33;;;-6.60;65.10;-7.80;95102.00;;;;5017118;28;20235;-55
2022/12/13 01:55:33;;;;;;;2.20;2.10;;;-6.50;65.60;-7.90;95114.00;;;;5016676;28;20214;-55
2022/12/13 01:58:02;;;;;;;6.13;4.90;;;-6.50;65.10;-8.10;95108.00;;;;5017060;28;20190;-55
2022/12/13 02:00:30;;;;;;;3.60;2.50;;;-6.60;64.70;-8.10;95098.00;;;;5016863;28;20201;-55
2022/12/13 02:03:01;;;;;;;2.27;2.07;;;-6.70;64.80;-8.30;95101.00;;;;5016793;28;20201;-55
2022/12/13 02:05:34;;;;;;;6.20;2.70;;;-6.90;64.50;-8.30;95103.00;;;;5016704;28;20244;-55
2022/12/13 02:08:03;;;;;;;3.17;1.67;;;-6.80;64.70;-8.30;95096.00;;;;5017144;28;20182;-55
2022/12/13 02:10:32;;;;;;;3.07;2.83;;;-6.90;64.80;-8.40;95094.00;;;;5016454;28;20213;-55
2022/12/13 02:12:59;;;;;;;2.23;2.03;;;-6.90;64.70;-8.30;95096.00;;;;4999110;28;20636;-55
2022/12/13 02:15:35;;;;;;;6.67;1.77;;;-6.90;65.10;-8.30;95078.00;;;;5016336;28;20214;-55
2022/12/13 02:18:31;;;;;;;3.40;1.87;;;-6.90;64.90;-8.30;95089.00;;;;5016582;28;20537;-55
2022/12/13 02:21:16;;;;;;;1.50;1.50;;;-6.90;65.50;-8.30;95077.00;;;;5016615;28;20256;-55
2022/12/13 02:24:34;;;;;;;4.97;4.13;;;-6.90;65.20;-8.40;95085.00;;;;5016375;28;20197;-55
2022/12/13 02:27:13;;;;;;;3.87;3.47;;;-7.00;64.80;-8.40;95087.00;;;;5016253;28;20178;-55
2022/12/13 02:30:26;;;;;;;3.20;2.83;;;-6.90;64.30;-8.40;95076.00;;;;5016640;28;20201;-55
2022/12/13 02:33:39;;;;;;;3.20;2.47;;;-7.00;64.30;-8.50;95089.00;;;;5016182;28;20254;-55
2022/12/13 02:36:13;;;;;;;1.40;1.40;;;-7.00;64.40;-8.50;95079.00;;;;4999983;28;20229;-55
2022/12/13 02:38:52;;;;;;;1.67;1.57;;;-7.10;64.60;-8.50;95073.00;;;;5016000;28;20702;-55
2022/12/13 02:41:27;;;;;;;2.77;2.57;;;-7.00;64.40;-8.50;95079.00;;;;5016470;28;20181;-55
2022/12/13 02:44:01;;;;;;;1.80;1.70;;;-7.00;64.50;-8.50;95072.00;;;;5015884;28;20188;-55
2022/12/13 02:46:36;;;;;;;2.70;2.50;;;-7.10;64.60;-8.40;95072.00;;;;5015231;28;20224;-55
2022/12/13 02:49:06;;;;;;;3.03;2.50;;;-7.00;65.00;-8.30;95068.00;;;;5016027;28;20181;-55
2022/12/13 02:51:37;;;;;;;3.40;2.57;;;-7.00;64.80;-8.30;95073.00;;;;5015979;28;20197;-55
2022/12/13 02:54:05;;;;;;;4.07;2.63;;;-6.90;64.50;-8.50;95062.00;;;;5015747;28;20181;-55
2022/12/13 02:56:32;;;;;;;3.73;3.47;;;-7.00;64.10;-8.70;95080.00;;;;5015604;28;20236;-55
2022/12/13 02:59:05;;;;;;;2.57;2.37;;;-7.10;64.00;-8.70;95062.00;;;;5015837;28;20220;-55
2022/12/13 03:01:52;;;;;;;5.17;2.73;;;-7.10;64.80;-8.70;95061.00;;;;5016084;28;20178;-56
2022/12/13 03:04:36;;;;;;;1.93;1.83;;;-7.20;64.60;-8.50;95056.00;;;;5015687;28;20213;-56
2022/12/13 03:07:36;;;;;;;2.43;1.77;;;-7.10;65.00;-8.50;95052.00;;;;5015478;28;20197;-55
2022/12/13 03:10:15;;;;;;;3.17;2.93;;;-7.10;64.40;-8.50;95038.00;;;;5015382;28;20564;-55
2022/12/13 03:15:47;;;;;;;1.87;1.77;;;-7.10;64.40;-8.50;95017.00;;;;5015238;28;20382;-55
2022/12/13 03:18:21;;;;;;;2.63;2.43;;;-7.10;64.20;-8.60;95036.00;;;;5015279;28;20655;-55
2022/12/13 03:20:52;;;;;;;2.17;1.97;;;-7.10;64.00;-8.70;95052.00;;;;5015424;28;20256;-55
2022/12/13 03:23:21;;;;;;;2.47;2.27;;;-7.20;63.60;-8.70;95044.00;;;;5015479;28;20180;-55
2022/12/13 03:25:51;;;;;;;2.83;1.67;;;-7.20;63.70;-8.70;95041.00;;;;5015018;28;20300;-54
2022/12/13 03:28:19;;;;;;;1.43;1.33;;;-7.30;63.90;-8.70;95046.00;;;;5015488;28;20536;-55
2022/12/13 03:30:46;;;;;;;2.00;1.90;;;-7.20;64.20;-8.70;95038.00;;;;5015244;28;20219;-55
2022/12/13 03:33:15;;;;;;;2.57;2.47;;;-7.30;64.00;-8.60;95033.00;;;;5014959;28;20552;-55
2022/12/13 03:35:43;;;;;;;3.33;3.00;;;-7.20;64.00;-8.50;95045.00;;;;5014854;28;20677;-55
2022/12/13 03:38:13;;;;;;;2.27;2.07;;;-7.20;63.50;-8.50;95041.00;;;;5014902;28;20190;-55
2022/12/13 03:40:40;;;;;;;1.80;1.70;;;-7.20;63.50;-8.60;95046.00;;;;5014818;28;20194;-55
2022/12/13 03:43:07;;;;;;;2.43;2.23;;;-7.20;62.90;-8.70;95044.00;;;;4997232;28;20193;-55
2022/12/13 03:45:34;;;;;;;2.60;1.93;;;-7.20;62.90;-8.60;95023.00;;;;5014560;28;20217;-55
2022/12/13 03:48:01;;;;;;;0.90;0.90;;;-7.20;63.00;-8.80;95020.00;;;;5015215;28;20212;-55
2022/12/13 03:50:30;;;;;;;3.00;2.50;;;-7.30;62.90;-8.70;95029.00;;;;5014624;28;20221;-55
2022/12/13 03:52:59;;;;;;;2.63;2.20;;;-7.30;63.70;-8.90;95030.00;;;;5014857;28;20571;-60
2022/12/13 03:55:26;;;;;;;2.33;2.23;;;-7.40;63.20;-9.00;95027.00;;;;5014480;28;20212;-55
2022/12/13 03:57:53;;;;;;;3.47;3.17;;;-7.50;63.90;-8.90;95025.00;;;;5013741;28;20201;-55
2022/12/13 04:00:21;;;;;;;3.07;2.57;;;-7.50;64.50;-8.90;95031.00;;;;5014480;28;20202;-55
2022/12/13 04:02:48;;;;;;;2.97;2.27;;;-7.50;64.40;-9.10;95043.00;;;;5014306;28;20191;-55
2022/12/13 04:05:16;;;;;;;3.73;3.10;;;-7.60;64.20;-9.10;95040.00;;;;4996669;28;20704;-55
2022/12/13 04:07:45;;;;;;;2.73;2.37;;;-7.60;64.80;-9.10;95038.00;;;;5014302;28;20207;-55
2022/12/13 04:10:12;;;;;;;1.90;1.80;;;-7.60;65.20;-9.10;95033.00;;;;5014253;28;20206;-55
2022/12/13 04:15:24;;;;;;;2.17;2.00;;;-7.40;67.30;-8.70;95031.00;;;;5014387;28;20252;-55
2022/12/13 04:17:51;;;;;;;1.53;1.43;;;-7.40;65.90;-8.80;95041.00;;;;5014075;28;20192;-55
2022/12/13 04:20:18;;;;;;;4.37;3.00;;;-7.40;65.80;-8.80;95028.00;;;;5014155;28;20193;-55
2022/12/13 04:22:46;;;;;;;1.60;1.50;;;-7.30;65.90;-8.90;95021.00;;;;4996415;28;20197;-55
2022/12/13 04:25:13;;;;;;;6.30;2.67;;;-7.40;65.60;-8.90;95025.00;;;;4997204;28;20218;-55
2022/12/13 04:27:40;;;;;;;1.87;1.77;;;-7.40;65.70;-8.90;95037.00;;;;5014001;28;20196;-56
2022/12/13 04:30:09;;;;;;;2.37;2.10;;;-7.40;65.70;-8.80;95031.00;;;;5013899;28;20217;-56
2022/12/13 04:32:36;;;;;;;2.80;1.90;;;-7.40;65.50;-8.80;95042.00;;;;5013962;28;20199;-55
2022/12/13 04:35:04;;;;;;;2.80;2.60;;;-7.40;65.50;-8.80;95027.00;;;;4996245;28;20213;-55
2022/12/13 04:37:31;;;;;;;2.73;2.53;;;-7.30;65.30;-8.80;95004.00;;;;5014103;28;20190;-58
2022/12/13 04:40:00;;;;;;;2.50;2.27;;;-7.40;65.30;-8.90;95029.00;;;;5014059;28;20594;-57
2022/12/13 04:42:27;;;;;;;3.67;3.03;;;-7.40;65.10;-8.90;95026.00;;;;5013800;28;20185;-56
2022/12/13 04:44:54;;;;;;;4.27;2.30;;;-7.40;65.20;-9.00;95022.00;;;;5013638;28;20272;-56
2022/12/13 04:47:21;;;;;;;6.77;3.87;;;-7.50;64.90;-8.90;95020.00;;;;5014042;28;20191;-56
2022/12/13 04:49:48;;;;;;;3.43;3.00;;;-7.50;65.20;-8.90;94988.00;;;;5013596;28;20200;-54
2022/12/13 04:52:15;;;;;;;1.87;1.77;;;-7.50;64.80;-9.00;95024.00;;;;5013548;28;20568;-55
2022/12/13 04:54:42;;;;;;;4.80;1.97;;;-7.50;64.40;-9.00;95026.00;;;;5013533;28;20213;-55
2022/12/13 04:57:11;;;;;;;2.23;2.03;;;-7.50;64.20;-9.00;95014.00;;;;4995907;28;20568;-55
2022/12/13 04:59:39;;;;;;;10.33;2.80;;;-7.60;64.00;-9.10;95014.00;;;;5013721;28;20551;-56
2022/12/13 05:02:07;;;;;;;7.53;1.80;;;-7.70;64.00;-9.10;95017.00;;;;5013471;28;20556;-54
2022/12/13 05:04:35;;;;;;;4.87;3.27;;;-7.70;64.10;-9.20;95017.00;;;;5013497;28;20206;-55
2022/12/13 05:07:03;;;;;;;4.03;3.07;;;-7.70;64.20;-9.20;95015.00;;;;5013675;28;20190;-55
2022/12/13 05:09:31;;;;;;;2.17;2.07;;;-7.80;64.30;-9.30;95010.00;;;;5013250;28;20193;-55
2022/12/13 05:11:58;;;;;;;2.00;1.90;;;-7.80;64.10;-9.30;95014.00;;;;5013329;28;20224;-55
2022/12/13 05:14:27;;;;;;;3.50;1.93;;;-7.80;63.90;-9.20;95004.00;;;;5013328;28;20190;-55
2022/12/13 05:16:54;;;;;;;3.37;3.13;;;-7.80;64.30;-9.20;94998.00;;;;5013484;28;20186;-55
2022/12/13 05:19:21;;;;;;;1.90;1.80;;;-7.80;64.10;-9.20;95009.00;;;;5013500;28;20208;-55
2022/12/13 05:21:49;;;;;;;2.90;2.47;;;-7.70;63.70;-9.20;95013.00;;;;5013334;28;20200;-56
2022/12/13 05:24:16;;;;;;;3.33;3.13;;;-7.70;63.90;-9.20;95012.00;;;;5013515;28;20185;-55
2022/12/13 05:26:43;;;;;;;2.63;2.33;;;-7.70;63.90;-9.30;95011.00;;;;5013195;28;20213;-55
2022/12/13 05:29:11;;;;;;;2.73;2.53;;;-7.80;63.70;-9.20;95005.00;;;;5013222;28;20196;-55
2022/12/13 05:31:40;;;;;;;2.30;2.10;;;-7.80;64.20;-9.30;94993.00;;;;5013129;28;20264;-55
2022/12/13 05:34:07;;;;;;;3.80;3.50;;;-7.90;64.00;-9.40;95005.00;;;;5013431;28;20668;-55
2022/12/13 05:36:34;;;;;;;4.43;2.07;;;-7.90;64.20;-8.50;95001.00;;;;5013334;28;20617;-55
2022/12/13 05:39:01;;;;;;;3.50;2.57;;;-7.40;78.70;-8.70;95012.00;;;;5013100;28;20189;-54
2022/12/13 05:41:33;;;;;;;3.17;2.90;;;-7.40;75.90;-8.90;95008.00;;;;5013316;28;20220;-54
2022/12/13 05:44:00;;;;;;;2.33;2.23;;;-7.40;73.60;-9.00;94992.00;;;;5013004;28;20189;-55
2022/12/13 05:46:27;;;;;;;2.13;2.03;;;-7.50;72.10;-9.10;95015.00;;;;5012942;28;20224;-55
2022/12/13 05:48:55;;;;;;;2.30;2.20;;;-7.50;70.80;-9.10;95006.00;;;;5013193;28;20201;-54
2022/12/13 05:51:22;;;;;;;2.23;2.03;;;-7.60;70.40;-9.00;94988.00;;;;5012929;28;20204;-55
2022/12/13 05:53:49;;;;;;;1.73;1.63;;;-7.60;70.20;-9.10;95005.00;;;;5012922;28;20667;-55
2022/12/13 05:56:16;;;;;;;2.50;2.30;;;-7.60;69.80;-9.10;95008.00;;;;4995240;28;20210;-55
2022/12/13 05:58:43;;;;;;;3.33;3.03;;;-7.60;69.60;-9.20;94992.00;;;;5013244;28;20200;-56
2022/12/13 06:01:15;;;;;;;3.60;2.97;;;-7.70;69.30;-9.10;94991.00;;;;5012743;28;20228;-55
2022/12/13 06:03:43;;;;;;;1.87;1.77;;;-7.70;69.40;-9.20;94931.00;;;;5013533;28;20673;-55
2022/12/13 06:06:13;;;;;;;2.60;2.40;;;-7.70;69.10;-9.20;94993.00;;;;5012775;28;20220;-55
2022/12/13 06:08:40;;;;;;;1.77;1.67;;;-7.70;69.20;-9.30;94984.00;;;;5012791;28;20753;-55
2022/12/13 06:11:08;;;;;;;3.40;2.33;;;-7.80;69.10;-9.20;94989.00;;;;5013062;28;20664;-55
2022/12/13 06:13:35;;;;;;;2.43;1.97;;;-7.80;69.20;-9.10;94986.00;;;;5012784;28;20192;-56
2022/12/13 06:16:05;;;;;;;1.73;1.63;;;-7.70;68.90;-9.30;94996.00;;;;5012673;28;20213;-56
2022/12/13 06:18:34;;;;;;;2.37;2.17;;;-7.70;68.10;-9.30;94991.00;;;;5012979;28;20186;-56
2022/12/13 06:21:05;;;;;;;2.90;2.50;;;-7.90;67.80;-9.30;94994.00;;;;5013269;28;20228;-55
2022/12/13 06:23:36;;;;;;;3.23;3.03;;;-7.80;67.20;-9.30;94993.00;;;;5016387;28;20185;-57
2022/12/13 06:26:05;;;;;;;2.87;2.67;;;-7.80;67.10;-9.30;94990.00;;;;5016230;28;20211;-55
2022/12/13 06:28:32;;;;;;;4.60;3.60;;;-7.90;66.90;-9.30;94993.00;;;;5016482;28;20533;-55
2022/12/13 06:31:00;;;;;;;3.57;2.90;;;-7.80;66.70;-9.40;94990.00;;;;4998520;28;20198;-55
2022/12/13 06:33:28;;;;;;;3.77;2.50;;;-7.90;66.70;-9.30;94990.00;;;;5016070;28;20255;-56
2022/12/13 06:35:57;;;;;;;5.10;4.23;;;-7.90;66.70;-9.30;94990.00;;;;5016201;28;20241;-56
2022/12/13 06:38:25;;;;;;;2.93;2.73;;;-7.80;66.20;-9.30;94994.00;;;;5016773;28;20652;-55
2022/12/13 06:40:53;;;;;;;3.60;3.00;;;-7.80;66.40;-9.40;94992.00;;;;5015868;28;20224;-55
2022/12/13 06:43:21;;;;;;;3.93;3.63;;;-7.90;66.20;-9.30;94995.00;;;;5016202;28;20212;-55
2022/12/13 06:45:49;;;;;;;6.53;4.37;;;-7.90;66.30;-9.30;94998.00;;;;5015699;28;20717;-56
2022/12/13 06:48:16;;;;;;;3.87;3.57;;;-7.90;66.10;-9.40;95006.00;;;;5015852;28;20192;-55
2022/12/13 06:50:43;;;;;;;3.77;3.33;;;-7.90;65.80;-9.40;95014.00;;;;4998238;28;20197;-56
2022/12/13 06:53:10;;;;;;;4.17;3.57;;;-7.90;65.70;-9.40;95002.00;;;;5015645;28;20247;-56
2022/12/13 06:55:37;;;;;;;8.10;3.97;;;-7.90;65.50;-9.40;95009.00;;;;5015707;28;20213;-58
2022/12/13 06:58:06;;;;;;;7.07;5.23;;;-8.00;65.10;-9.30;95011.00;;;;5015658;28;20552;-57
2022/12/13 07:00:33;;;;;;;1.90;1.80;;;-7.90;65.20;-9.60;95013.00;;;;5015881;28;20193;-55
2022/12/13 07:03:00;;;;;;;5.73;2.93;;;-8.10;64.50;-9.60;95023.00;;;;5015639;28;20188;-55
2022/12/13 07:05:27;;;;;;;3.40;2.43;;;-8.10;65.10;-9.50;95010.00;;;;5015429;28;20217;-55
2022/12/13 07:07:54;;;;;;;3.60;3.27;;;-8.10;65.20;-9.30;95013.00;;;;5015400;28;20559;-55
2022/12/13 07:10:22;;;;;;;3.00;2.47;;;-7.90;65.50;-9.30;95016.00;;;;5015380;28;20194;-56
2022/12/13 07:12:49;;;;;;;4.20;2.50;;;-7.90;65.20;-9.40;95022.00;;;;4997721;28;20201;-58
2022/12/13 07:15:17;;;;;;;2.87;2.67;;;-7.90;65.10;-9.40;95018.00;;;;5015252;28;20604;-56
2022/12/13 07:17:49;;;;;;;4.23;3.37;;;-7.90;65.20;-9.40;94973.00;;;;5015149;28;20189;-58
2022/12/13 07:20:18;;;;;;;3.27;2.97;;;-7.90;65.00;-9.50;95011.00;;;;5015781;28;20189;-56
2022/12/13 07:22:48;;;;;;;3.63;3.33;;;-8.00;64.60;-9.40;95026.00;;;;4997445;28;20231;-55
2022/12/13 07:25:15;;;;;;;12.27;4.10;;;-7.90;64.90;-9.40;95013.00;;;;5015200;28;20240;-55
2022/12/13 07:27:42;;;;;;;8.60;5.90;;;-7.90;65.00;-9.30;95015.00;;;;5015003;28;20195;-54
2022/12/13 07:30:11;;;;;;;6.30;5.40;;;-7.90;65.10;-9.20;95021.00;;;;5015010;28;20556;-55
2022/12/13 07:32:39;;;;;;;4.77;4.30;;;-7.80;65.00;-9.20;95023.00;;;;5014727;28;20215;-55
2022/12/13 07:35:07;;;;;;;4.87;4.47;;;-7.80;64.80;-9.20;95019.00;;;;5014821;28;20224;-55
2022/12/13 07:37:34;;;;;;;4.07;3.43;;;-7.80;64.50;-9.30;95039.00;;;;5014842;28;20201;-55
2022/12/13 07:40:02;;;;;;;4.63;4.23;;;-7.80;64.20;-9.30;95029.00;;;;5014843;28;20192;-55
2022/12/13 07:42:29;;;;;;;4.97;3.93;;;-7.80;64.10;-9.40;95027.00;;;;5003033;28;20273;-56
2022/12/13 07:44:56;;;;;;;7.67;5.87;;;-7.90;64.10;-9.20;95033.00;;;;5002871;28;20221;-54
2022/12/13 07:47:24;;;;;;;4.33;3.97;;;-7.80;64.70;-9.20;95038.00;;;;5043185;23;20351;-63
2022/12/13 07:49:53;;;;;;;4.37;2.73;;;-7.80;64.70;-9.20;95034.00;;;;5032481;28;20200;-61
2022/12/13 07:52:20;;;;;;;3.33;3.03;;;-7.80;64.60;-9.10;95050.00;;;;5046937;28;20275;-59
2022/12/13 07:54:47;;;;;;;6.47;5.87;;;-7.70;64.80;-9.00;95040.00;;;;5050608;28;20258;-59
2022/12/13 07:57:14;;;;;;;5.37;4.87;;;-7.60;64.60;-8.90;95049.00;;;;5032252;28;20212;-61
2022/12/13 07:59:41;;;;;;;15.57;6.17;;;-7.60;64.40;-8.90;95044.00;;;;5048386;28;20282;-60
2022/12/13 08:02:13;;;;;;;10.00;5.03;;;-7.50;64.30;-8.80;95043.00;;;;5050986;28;20220;-60
2022/12/13 08:04:41;;;;;;;4.63;4.23;;;-7.40;64.10;-8.90;95041.00;;;;5035131;28;20185;-60
2022/12/13 08:07:11;;;;;;;3.67;3.43;;;-7.50;63.60;-8.80;95044.00;;;;5031941;28;20588;-60
2022/12/13 08:09:38;;;;;;;4.73;4.33;;;-7.40;64.00;-8.60;95036.00;;;;5045866;28;20659;-60
2022/12/13 08:12:05;;;;;;;5.10;4.67;;;-7.30;64.40;-8.40;95041.00;;;;5031919;28;20211;-60
2022/12/13 08:14:33;;;;;;;4.60;4.17;;;-7.20;63.80;-8.50;95043.00;;;;5031847;28;20200;-60
2022/12/13 08:17:00;;;;;;;6.47;3.17;;;-7.20;63.30;-8.40;95035.00;;;;5031735;28;20218;-60
2022/12/13 08:19:27;;;;;;;11.03;4.50;;;-7.20;63.30;-8.50;95037.00;;;;5034034;28;20271;-60
2022/12/13 08:21:55;;;;;;;3.60;3.30;;;-7.20;63.10;-8.50;95029.00;;;;5031716;28;20220;-60
2022/12/13 08:24:24;;;;;;;4.60;4.20;;;-7.20;64.20;-8.50;95031.00;;;;5048267;28;20219;-60
2022/12/13 08:26:52;;;;;;;11.30;4.90;;;-7.10;63.70;-8.50;95036.00;;;;5034797;28;20216;-60
2022/12/13 08:29:19;;;;;;;10.77;7.90;;;-7.10;63.50;-8.30;95031.00;;;;5031558;28;20197;-59
2022/12/13 08:31:46;;;;;;;12.20;9.00;;;-7.00;63.60;-8.30;95035.00;;;;5031590;28;20200;-59
2022/12/13 08:34:13;;;;;;;8.97;6.00;;;-7.00;63.40;-8.20;95035.00;;;;5031462;28;20557;-62
2022/12/13 08:36:40;;;;;;;3.27;3.00;;;-6.90;63.60;-8.10;95045.00;;;;5031384;28;20212;-61
2022/12/13 08:39:07;;;;;;;8.27;4.30;;;-6.80;63.50;-8.10;95040.00;;;;5031460;28;20197;-61
2022/12/13 08:41:36;;;;;;;4.57;4.17;;;-6.80;63.40;-8.10;95051.00;;;;5037617;28;20223;-61
2022/12/13 08:44:03;;;;;;;8.93;5.30;;;-6.70;63.50;-8.00;95044.00;;;;5032812;28;20770;-61
2022/12/13 08:46:30;;;;;;;4.80;4.13;;;-6.70;63.00;-7.90;95046.00;;;;5031111;28;20224;-61
2022/12/13 08:48:57;;;;;;;4.67;4.30;;;-6.60;63.20;-7.80;95046.00;;;;5031246;28;20189;-61
2022/12/13 08:51:24;;;;;;;15.30;6.13;;;-6.50;63.20;-7.90;95045.00;;;;5031120;28;20580;-61
2022/12/13 08:53:51;;;;;;;6.63;5.67;;;-6.50;62.70;-7.70;95048.00;;;;5035663;28;20540;-61
2022/12/13 08:56:19;;;;;;;3.47;3.13;;;-6.50;62.80;-7.70;95044.00;;;;5047643;28;20212;-61
2022/12/13 08:58:50;;;;;;;9.53;4.83;;;-6.50;62.90;-7.70;95037.00;;;;5050994;28;20188;-61
2022/12/13 09:01:18;;;;;;;4.87;4.43;;;-6.30;63.10;-7.60;95033.00;;;;5050868;28;20180;-61
2022/12/13 09:03:45;;;;;;;4.27;3.97;;;-6.20;62.80;-7.90;95031.00;;;;5044011;28;20189;-61
2022/12/13 09:06:16;;;;;;;5.13;3.50;;;-6.40;62.40;-7.70;95025.00;;;;5030943;28;20216;-61
2022/12/13 09:08:44;;;;;;;2.10;2.00;;;-6.30;63.60;-7.40;95039.00;;;;5031348;28;20576;-59
2022/12/13 09:11:12;;;;;;;5.57;4.37;;;-6.20;63.60;-7.30;95029.00;;;;5031033;28;20268;-61
2022/12/13 09:13:40;;;;;;;8.93;5.40;;;-6.00;63.60;-7.10;95028.00;;;;5031026;28;20202;-61
2022/12/13 09:16:13;;;;;;;17.13;4.30;;;-5.90;63.40;-7.00;95021.00;;;;5030866;28;20219;-60
2022/12/13 09:18:41;;;;;;;4.27;3.97;;;-5.80;62.90;-7.00;95024.00;;;;5030947;28;20239;-60
2022/12/13 09:21:10;;;;;;;6.03;3.07;;;-5.70;63.10;-6.90;95036.00;;;;5038914;28;20200;-60
2022/12/13 09:23:39;;;;;;;3.77;3.07;;;-5.60;62.70;-6.80;95030.00;;;;5050780;28;20278;-60
2022/12/13 09:26:06;;;;;;;2.80;2.47;;;-5.50;62.80;-7.00;95032.00;;;;5050634;28;20216;-62
2022/12/13 09:28:35;;;;;;;4.50;3.40;;;-5.60;62.70;-6.70;95038.00;;;;5050804;28;20188;-61
2022/12/13 09:31:10;;;;;;;2.13;2.03;;;-5.40;63.40;-6.50;95026.00;;;;5049403;28;20208;-60
2022/12/13 09:33:37;;;;;;;2.83;2.63;;;-5.30;63.40;-6.40;95033.00;;;;5050618;28;20237;-60
2022/12/13 09:36:07;;;;;;;2.40;2.27;;;-5.20;63.00;-6.40;95044.00;;;;5050759;28;20220;-61
2022/12/13 09:38:34;;;;;;;4.30;3.60;;;-5.10;63.20;-6.40;95035.00;;;;5041016;28;20226;-61
2022/12/13 09:41:21;;;;;;;3.50;3.30;;;-5.20;62.20;-6.30;95040.00;;;;5031438;28;20572;-60
2022/12/13 09:43:55;;;;;;;5.63;4.50;;;-5.00;63.20;-5.90;95043.00;;;;5047499;28;20657;-60
2022/12/13 09:46:31;;;;;;;11.93;3.77;;;-4.80;63.30;-6.00;95040.00;;;;5050326;28;20228;-60
2022/12/13 09:49:01;;;;;;;1.63;1.57;;;-4.70;62.60;-5.70;95038.00;;;;5046257;28;20191;-60
2022/12/13 09:51:29;;;;;;;3.33;2.97;;;-4.60;63.40;-5.50;95044.00;;;;5044694;28;20233;-61
2022/12/13 09:53:56;;;;;;;2.93;2.63;;;-4.40;63.00;-5.40;95044.00;;;;5048807;28;20196;-60
2022/12/13 09:56:24;;;;;;;3.60;2.33;;;-4.20;62.40;-5.60;95032.00;;;;5050801;28;20749;-61
2022/12/13 09:58:55;;;;;;;2.53;2.33;;;-4.30;61.40;-5.40;95029.00;;;;5034472;28;20194;-60
2022/12/13 10:01:24;;;;;;;6.23;3.20;;;-4.30;62.30;-5.00;95023.00;;;;5052906;28;20188;-60
2022/12/13 10:03:55;;;;;;;2.10;2.00;;;-3.90;62.90;-4.80;95033.00;;;;5036837;28;20198;-60
2022/12/13 10:06:27;;;;;;;5.60;3.77;;;-3.70;62.10;-4.70;95021.00;;;;5034354;28;20215;-60
2022/12/13 10:08:59;;;;;;;3.07;2.87;;;-3.50;61.80;-4.40;95029.00;;;;5034394;28;20277;-61
2022/12/13 10:11:28;;;;;;;2.67;2.47;;;-3.30;61.60;-4.40;95021.00;;;;5032941;28;20194;-61
2022/12/13 10:14:01;;;;;;;2.23;2.03;;;-3.30;59.40;-4.40;95027.00;;;;5034183;28;20244;-60
2022/12/13 10:16:42;;;;;;;4.53;2.83;;;-3.20;60.40;-4.50;95018.00;;;;5033957;28;20711;-60
2022/12/13 10:19:18;;;;;;;1.80;1.73;;;-3.30;59.70;-4.50;95015.00;;;;5049883;28;20188;-60
2022/12/13 10:21:47;;;;;;;2.10;2.00;;;-3.20;60.30;-4.80;95020.00;;;;5053845;28;20191;-61
2022/12/13 10:24:19;;;;;;;4.47;2.43;;;-3.50;61.50;-4.30;95004.00;;;;5054038;28;20259;-59
2022/12/13 10:26:47;;;;;;;4.70;3.20;;;-3.20;61.50;-4.20;95000.00;;;;5053662;28;20223;-60
2022/12/13 10:29:14;;;;;;;3.97;3.67;;;-3.10;61.80;-4.10;95006.00;;;;5053795;28;20207;-60
2022/12/13 10:31:46;;;;;;;5.53;2.63;;;-2.90;60.80;-3.60;95011.00;;;;5053630;28;20834;-60
2022/12/13 10:34:24;;;;;;;3.60;2.43;;;-2.60;62.00;-3.40;94999.00;;;;5053680;28;20640;-60
2022/12/13 10:36:52;;;;;;;4.50;3.17;;;-2.40;60.50;-3.20;94999.00;;;;5034096;28;20222;-60
2022/12/13 10:39:39;;;;;;;2.17;2.03;;;-2.20;59.00;-3.00;94997.00;;;;5033842;28;20273;-60
2022/12/13 10:42:13;;;;;;;4.77;2.60;;;-2.10;59.00;-2.80;94990.00;;;;5043781;28;20274;-60
2022/12/13 10:44:40;;;;;;;2.43;2.23;;;-1.80;57.70;-2.80;94986.00;;;;5033696;28;20192;-60
2022/12/13 10:47:18;;;;;;;5.23;4.67;;;-1.70;56.00;-2.90;94993.00;;;;5031861;28;20702;-60
2022/12/13 10:49:52;;;;;;;4.10;3.13;;;-1.80;56.00;-2.80;94988.00;;;;5033834;28;20192;-60
2022/12/13 10:52:26;;;;;;;4.03;2.77;;;-1.70;56.80;-2.60;94987.00;;;;5049367;28;20200;-61
2022/12/13 10:54:54;;;;;;;3.40;2.57;;;-1.60;57.50;-2.40;94982.00;;;;5053426;28;20194;-61
2022/12/13 10:57:22;;;;;;;2.23;2.10;;;-1.40;56.90;-2.20;94991.00;;;;5053169;28;20222;-59
2022/12/13 10:59:51;;;;;;;2.70;2.13;;;-1.20;56.10;-2.20;94983.00;;;;5046359;28;20210;-59
2022/12/13 11:02:34;;;;;;;6.90;2.87;;;-1.20;55.90;-1.90;94973.00;;;;5033045;28;20220;-59
2022/12/13 11:05:25;;;;;;;2.60;1.83;;;-0.90;56.10;-1.60;94977.00;;;;5052863;28;20187;-59
2022/12/13 11:07:54;;;;;;;7.23;2.93;;;-0.70;54.90;-1.10;94960.00;;;;5032665;28;20659;-59
2022/12/13 11:10:26;;;;;;;2.23;2.10;;;-0.30;53.80;-0.40;94964.00;;;;5041030;28;20644;-59
2022/12/13 11:13:01;;;;;;;3.50;3.10;;;0.20;52.60;0.20;94977.00;;;;5052912;28;20203;-59